Terminal Aerodrome Forecast
Issued by NWS Blacksburg, VA

Current Version | Previous Version | Text Only | Print | Product List | Glossary Off
Versions: 1 2 3 4 5 6 7 8 9 10 11 12 13 14 15 16 17 18 19

000
FTUS41 KRNK 201727
TAFBLF
TAF
KBLF 201727Z 2018/2118 27013G21KT P6SM BKN035
     FM210000 27009KT P6SM BKN010 WS020/29040KT
     FM210400 26008KT P6SM OVC010
     FM210800 26007KT P6SM BKN008
     FM211000 26006KT P6SM BKN010
     FM211600 25009KT P6SM OVC015=

USA.gov is the U.S. government's official web portal to all federal, state and local government web resources and services.